sensor_id;sensor_type;location;lat;lon;timestamp;P1;durP1;ratioP1;P2;durP2;ratioP2
56136;SDS011;42008;52.934;5.884;2022-07-10T00:00:29;11.20;;;2.00;;
56136;SDS011;42008;52.934;5.884;2022-07-10T00:02:55;15.07;;;1.87;;
56136;SDS011;42008;52.934;5.884;2022-07-10T00:05:22;9.90;;;1.87;;
56136;SDS011;42008;52.934;5.884;2022-07-10T00:07:48;7.67;;;1.80;;
56136;SDS011;42008;52.934;5.884;2022-07-10T00:10:15;9.20;;;2.10;;
56136;SDS011;42008;52.934;5.884;2022-07-10T00:12:45;12.13;;;2.33;;
56136;SDS011;42008;52.934;5.884;2022-07-10T00:15:11;9.07;;;1.40;;
56136;SDS011;42008;52.934;5.884;2022-07-10T00:17:38;6.77;;;1.90;;
56136;SDS011;42008;52.934;5.884;2022-07-10T00:20:04;11.90;;;1.87;;
56136;SDS011;42008;52.934;5.884;2022-07-10T00:22:31;11.83;;;2.47;;
56136;SDS011;42008;52.934;5.884;2022-07-10T00:24:59;15.13;;;2.30;;
56136;SDS011;42008;52.934;5.884;2022-07-10T00:27:26;10.17;;;2.00;;
56136;SDS011;42008;52.934;5.884;2022-07-10T00:29:51;13.70;;;2.53;;
56136;SDS011;42008;52.934;5.884;2022-07-10T00:32:17;13.57;;;2.73;;
56136;SDS011;42008;52.934;5.884;2022-07-10T00:34:42;9.90;;;2.10;;
56136;SDS011;42008;52.934;5.884;2022-07-10T00:37:08;13.30;;;1.97;;
56136;SDS011;42008;52.934;5.884;2022-07-10T00:39:34;13.17;;;2.27;;
56136;SDS011;42008;52.934;5.884;2022-07-10T00:42:09;13.17;;;2.23;;
56136;SDS011;42008;52.934;5.884;2022-07-10T00:44:37;14.23;;;2.63;;
56136;SDS011;42008;52.934;5.884;2022-07-10T00:47:03;15.90;;;2.83;;
56136;SDS011;42008;52.934;5.884;2022-07-10T00:49:29;13.57;;;2.87;;
56136;SDS011;42008;52.934;5.884;2022-07-10T00:51:55;10.87;;;2.57;;
56136;SDS011;42008;52.934;5.884;2022-07-10T00:54:22;16.93;;;2.53;;
56136;SDS011;42008;52.934;5.884;2022-07-10T00:56:48;14.97;;;2.43;;
56136;SDS011;42008;52.934;5.884;2022-07-10T00:59:14;11.47;;;2.53;;
56136;SDS011;42008;52.934;5.884;2022-07-10T01:01:39;13.13;;;2.17;;
56136;SDS011;42008;52.934;5.884;2022-07-10T01:04:05;13.67;;;2.73;;
56136;SDS011;42008;52.934;5.884;2022-07-10T01:06:31;14.93;;;2.27;;
56136;SDS011;42008;52.934;5.884;2022-07-10T01:08:57;11.73;;;2.90;;
56136;SDS011;42008;52.934;5.884;2022-07-10T01:11:23;13.20;;;2.03;;
56136;SDS011;42008;52.934;5.884;2022-07-10T01:13:49;13.27;;;2.53;;
56136;SDS011;42008;52.934;5.884;2022-07-10T01:16:14;21.17;;;3.93;;
56136;SDS011;42008;52.934;5.884;2022-07-10T01:18:40;15.33;;;3.27;;
56136;SDS011;42008;52.934;5.884;2022-07-10T01:21:06;11.93;;;2.47;;
56136;SDS011;42008;52.934;5.884;2022-07-10T01:23:49;16.03;;;2.33;;
56136;SDS011;42008;52.934;5.884;2022-07-10T01:26:14;14.83;;;2.47;;
56136;SDS011;42008;52.934;5.884;2022-07-10T01:28:40;11.50;;;2.27;;
56136;SDS011;42008;52.934;5.884;2022-07-10T01:31:06;9.70;;;2.00;;
56136;SDS011;42008;52.934;5.884;2022-07-10T01:33:32;12.63;;;2.60;;
56136;SDS011;42008;52.934;5.884;2022-07-10T01:35:57;11.77;;;2.30;;
56136;SDS011;42008;52.934;5.884;2022-07-10T01:38:23;11.97;;;2.70;;
56136;SDS011;42008;52.934;5.884;2022-07-10T01:40:49;13.07;;;3.00;;
56136;SDS011;42008;52.934;5.884;2022-07-10T01:43:14;11.73;;;2.33;;
56136;SDS011;42008;52.934;5.884;2022-07-10T01:45:40;11.07;;;2.50;;
56136;SDS011;42008;52.934;5.884;2022-07-10T01:48:05;15.53;;;2.20;;
56136;SDS011;42008;52.934;5.884;2022-07-10T01:50:31;13.43;;;2.20;;
56136;SDS011;42008;52.934;5.884;2022-07-10T01:52:57;13.03;;;2.17;;
56136;SDS011;42008;52.934;5.884;2022-07-10T01:55:22;13.53;;;2.20;;
56136;SDS011;42008;52.934;5.884;2022-07-10T01:57:48;11.30;;;2.10;;
56136;SDS011;42008;52.934;5.884;2022-07-10T02:00:13;13.07;;;2.57;;
56136;SDS011;42008;52.934;5.884;2022-07-10T02:02:39;10.50;;;2.50;;
56136;SDS011;42008;52.934;5.884;2022-07-10T02:05:05;10.83;;;2.23;;
56136;SDS011;42008;52.934;5.884;2022-07-10T02:07:31;15.17;;;1.90;;
56136;SDS011;42008;52.934;5.884;2022-07-10T02:09:56;13.10;;;2.70;;
56136;SDS011;42008;52.934;5.884;2022-07-10T02:12:22;9.13;;;1.80;;
56136;SDS011;42008;52.934;5.884;2022-07-10T02:14:48;14.20;;;2.43;;
56136;SDS011;42008;52.934;5.884;2022-07-10T02:17:13;9.83;;;1.70;;
56136;SDS011;42008;52.934;5.884;2022-07-10T02:19:41;12.10;;;2.50;;
56136;SDS011;42008;52.934;5.884;2022-07-10T02:22:06;8.00;;;1.63;;
56136;SDS011;42008;52.934;5.884;2022-07-10T02:24:32;9.47;;;1.60;;
56136;SDS011;42008;52.934;5.884;2022-07-10T02:26:58;12.77;;;2.13;;
56136;SDS011;42008;52.934;5.884;2022-07-10T02:29:23;13.43;;;2.10;;
56136;SDS011;42008;52.934;5.884;2022-07-10T02:31:49;11.30;;;2.00;;
56136;SDS011;42008;52.934;5.884;2022-07-10T02:34:15;12.17;;;2.63;;
56136;SDS011;42008;52.934;5.884;2022-07-10T02:36:40;13.23;;;1.80;;
56136;SDS011;42008;52.934;5.884;2022-07-10T02:39:07;11.47;;;1.90;;
56136;SDS011;42008;52.934;5.884;2022-07-10T02:41:33;8.67;;;1.67;;
56136;SDS011;42008;52.934;5.884;2022-07-10T02:44:00;10.77;;;2.00;;
56136;SDS011;42008;52.934;5.884;2022-07-10T02:46:26;14.67;;;2.00;;
56136;SDS011;42008;52.934;5.884;2022-07-10T02:48:52;13.30;;;2.67;;
56136;SDS011;42008;52.934;5.884;2022-07-10T02:51:18;14.87;;;1.87;;
56136;SDS011;42008;52.934;5.884;2022-07-10T02:53:43;13.93;;;2.40;;
56136;SDS011;42008;52.934;5.884;2022-07-10T02:56:09;8.73;;;1.70;;
56136;SDS011;42008;52.934;5.884;2022-07-10T02:58:34;12.33;;;2.03;;
56136;SDS011;42008;52.934;5.884;2022-07-10T03:01:02;6.40;;;1.63;;
56136;SDS011;42008;52.934;5.884;2022-07-10T03:03:27;14.20;;;2.37;;
56136;SDS011;42008;52.934;5.884;2022-07-10T03:05:53;13.03;;;2.37;;
56136;SDS011;42008;52.934;5.884;2022-07-10T03:08:19;11.97;;;2.20;;
56136;SDS011;42008;52.934;5.884;2022-07-10T03:10:44;13.60;;;2.00;;
56136;SDS011;42008;52.934;5.884;2022-07-10T03:13:10;13.60;;;2.03;;
56136;SDS011;42008;52.934;5.884;2022-07-10T03:15:35;14.03;;;2.53;;
56136;SDS011;42008;52.934;5.884;2022-07-10T03:18:01;12.10;;;1.80;;
56136;SDS011;42008;52.934;5.884;2022-07-10T03:20:26;14.63;;;2.37;;
56136;SDS011;42008;52.934;5.884;2022-07-10T03:22:52;11.10;;;2.33;;
56136;SDS011;42008;52.934;5.884;2022-07-10T03:25:18;11.53;;;1.83;;
56136;SDS011;42008;52.934;5.884;2022-07-10T03:27:43;11.10;;;2.20;;
56136;SDS011;42008;52.934;5.884;2022-07-10T03:30:09;12.57;;;1.80;;
56136;SDS011;42008;52.934;5.884;2022-07-10T03:32:35;12.93;;;2.27;;
56136;SDS011;42008;52.934;5.884;2022-07-10T03:35:01;14.70;;;2.03;;
56136;SDS011;42008;52.934;5.884;2022-07-10T03:37:26;8.40;;;2.00;;
56136;SDS011;42008;52.934;5.884;2022-07-10T03:39:52;17.57;;;2.30;;
56136;SDS011;42008;52.934;5.884;2022-07-10T03:42:18;14.00;;;2.27;;
56136;SDS011;42008;52.934;5.884;2022-07-10T03:44:44;10.00;;;2.07;;
56136;SDS011;42008;52.934;5.884;2022-07-10T03:47:10;13.07;;;2.03;;
56136;SDS011;42008;52.934;5.884;2022-07-10T03:49:36;14.07;;;2.10;;
56136;SDS011;42008;52.934;5.884;2022-07-10T03:52:04;19.13;;;3.50;;
56136;SDS011;42008;52.934;5.884;2022-07-10T03:54:30;13.17;;;2.47;;
56136;SDS011;42008;52.934;5.884;2022-07-10T03:56:56;14.70;;;2.80;;
56136;SDS011;42008;52.934;5.884;2022-07-10T03:59:41;14.50;;;2.70;;
56136;SDS011;42008;52.934;5.884;2022-07-10T04:02:07;11.50;;;2.47;;
56136;SDS011;42008;52.934;5.884;2022-07-10T04:04:32;17.80;;;3.17;;
56136;SDS011;42008;52.934;5.884;2022-07-10T04:06:58;9.57;;;2.67;;
56136;SDS011;42008;52.934;5.884;2022-07-10T04:09:24;10.20;;;2.50;;
56136;SDS011;42008;52.934;5.884;2022-07-10T04:11:49;10.63;;;2.60;;
56136;SDS011;42008;52.934;5.884;2022-07-10T04:14:15;11.27;;;2.50;;
56136;SDS011;42008;52.934;5.884;2022-07-10T04:16:41;12.77;;;2.70;;
56136;SDS011;42008;52.934;5.884;2022-07-10T04:19:06;15.97;;;2.90;;
56136;SDS011;42008;52.934;5.884;2022-07-10T04:21:32;13.93;;;2.87;;
56136;SDS011;42008;52.934;5.884;2022-07-10T04:23:58;15.43;;;3.13;;
56136;SDS011;42008;52.934;5.884;2022-07-10T04:26:23;17.30;;;3.53;;
56136;SDS011;42008;52.934;5.884;2022-07-10T04:28:49;11.77;;;3.03;;
56136;SDS011;42008;52.934;5.884;2022-07-10T04:31:14;13.90;;;2.40;;
56136;SDS011;42008;52.934;5.884;2022-07-10T04:33:40;13.97;;;2.70;;
56136;SDS011;42008;52.934;5.884;2022-07-10T04:36:05;15.43;;;2.60;;
56136;SDS011;42008;52.934;5.884;2022-07-10T04:38:31;11.63;;;2.57;;
56136;SDS011;42008;52.934;5.884;2022-07-10T04:40:57;14.70;;;3.07;;
56136;SDS011;42008;52.934;5.884;2022-07-10T04:43:23;10.03;;;2.60;;
56136;SDS011;42008;52.934;5.884;2022-07-10T04:45:49;12.77;;;2.90;;
56136;SDS011;42008;52.934;5.884;2022-07-10T04:48:14;15.30;;;2.90;;
56136;SDS011;42008;52.934;5.884;2022-07-10T04:50:40;13.20;;;2.73;;
56136;SDS011;42008;52.934;5.884;2022-07-10T04:53:05;13.23;;;3.00;;
56136;SDS011;42008;52.934;5.884;2022-07-10T04:55:31;15.40;;;3.30;;
56136;SDS011;42008;52.934;5.884;2022-07-10T04:57:57;10.87;;;2.73;;
56136;SDS011;42008;52.934;5.884;2022-07-10T05:00:23;13.10;;;2.67;;
56136;SDS011;42008;52.934;5.884;2022-07-10T05:02:48;18.60;;;3.60;;
56136;SDS011;42008;52.934;5.884;2022-07-10T05:05:14;10.67;;;2.40;;
56136;SDS011;42008;52.934;5.884;2022-07-10T05:07:40;11.97;;;2.80;;
56136;SDS011;42008;52.934;5.884;2022-07-10T05:10:05;11.27;;;2.90;;
56136;SDS011;42008;52.934;5.884;2022-07-10T05:12:31;12.13;;;2.73;;
56136;SDS011;42008;52.934;5.884;2022-07-10T05:14:57;14.40;;;3.33;;
56136;SDS011;42008;52.934;5.884;2022-07-10T05:17:24;11.73;;;3.37;;
56136;SDS011;42008;52.934;5.884;2022-07-10T05:19:51;12.37;;;2.93;;
56136;SDS011;42008;52.934;5.884;2022-07-10T05:22:18;10.80;;;2.50;;
56136;SDS011;42008;52.934;5.884;2022-07-10T05:24:44;11.97;;;3.03;;
56136;SDS011;42008;52.934;5.884;2022-07-10T05:27:09;10.30;;;2.70;;
56136;SDS011;42008;52.934;5.884;2022-07-10T05:29:35;12.63;;;2.97;;
56136;SDS011;42008;52.934;5.884;2022-07-10T05:32:01;12.13;;;2.97;;
56136;SDS011;42008;52.934;5.884;2022-07-10T05:34:26;13.23;;;2.50;;
56136;SDS011;42008;52.934;5.884;2022-07-10T05:36:52;11.00;;;2.40;;
56136;SDS011;42008;52.934;5.884;2022-07-10T05:39:17;10.57;;;2.90;;
56136;SDS011;42008;52.934;5.884;2022-07-10T05:41:43;12.20;;;2.70;;
56136;SDS011;42008;52.934;5.884;2022-07-10T05:44:08;9.13;;;2.80;;
56136;SDS011;42008;52.934;5.884;2022-07-10T05:46:34;11.67;;;2.70;;
56136;SDS011;42008;52.934;5.884;2022-07-10T05:48:59;12.80;;;2.90;;
56136;SDS011;42008;52.934;5.884;2022-07-10T05:51:26;14.03;;;2.50;;
56136;SDS011;42008;52.934;5.884;2022-07-10T05:53:51;12.27;;;2.67;;
56136;SDS011;42008;52.934;5.884;2022-07-10T05:56:17;12.73;;;2.57;;
56136;SDS011;42008;52.934;5.884;2022-07-10T05:58:43;9.27;;;2.27;;
56136;SDS011;42008;52.934;5.884;2022-07-10T06:01:08;10.93;;;2.77;;
56136;SDS011;42008;52.934;5.884;2022-07-10T06:03:34;10.67;;;2.37;;
56136;SDS011;42008;52.934;5.884;2022-07-10T06:06:00;7.17;;;1.97;;
56136;SDS011;42008;52.934;5.884;2022-07-10T06:08:26;10.30;;;2.17;;
56136;SDS011;42008;52.934;5.884;2022-07-10T06:10:51;10.93;;;2.10;;
56136;SDS011;42008;52.934;5.884;2022-07-10T06:13:17;10.97;;;2.23;;
56136;SDS011;42008;52.934;5.884;2022-07-10T06:15:43;10.17;;;2.20;;
56136;SDS011;42008;52.934;5.884;2022-07-10T06:18:08;10.33;;;2.17;;
56136;SDS011;42008;52.934;5.884;2022-07-10T06:20:34;9.90;;;1.50;;
56136;SDS011;42008;52.934;5.884;2022-07-10T06:23:00;9.63;;;2.10;;
56136;SDS011;42008;52.934;5.884;2022-07-10T06:25:25;9.33;;;2.00;;
56136;SDS011;42008;52.934;5.884;2022-07-10T06:27:51;10.20;;;2.47;;
56136;SDS011;42008;52.934;5.884;2022-07-10T06:30:16;7.13;;;1.77;;
56136;SDS011;42008;52.934;5.884;2022-07-10T06:32:42;6.70;;;2.03;;
56136;SDS011;42008;52.934;5.884;2022-07-10T06:35:09;10.27;;;2.30;;
56136;SDS011;42008;52.934;5.884;2022-07-10T06:37:35;6.97;;;2.03;;
56136;SDS011;42008;52.934;5.884;2022-07-10T06:40:01;9.87;;;2.20;;
56136;SDS011;42008;52.934;5.884;2022-07-10T06:42:26;9.97;;;2.57;;
56136;SDS011;42008;52.934;5.884;2022-07-10T06:44:52;11.17;;;2.47;;
56136;SDS011;42008;52.934;5.884;2022-07-10T06:47:18;7.87;;;1.97;;
56136;SDS011;42008;52.934;5.884;2022-07-10T06:50:06;9.33;;;2.43;;
56136;SDS011;42008;52.934;5.884;2022-07-10T06:52:33;10.27;;;2.40;;
56136;SDS011;42008;52.934;5.884;2022-07-10T06:54:59;10.60;;;3.07;;
56136;SDS011;42008;52.934;5.884;2022-07-10T06:57:26;8.33;;;2.30;;
56136;SDS011;42008;52.934;5.884;2022-07-10T06:59:52;7.10;;;2.37;;
56136;SDS011;42008;52.934;5.884;2022-07-10T07:02:18;8.97;;;2.57;;
56136;SDS011;42008;52.934;5.884;2022-07-10T07:04:44;7.83;;;2.40;;
56136;SDS011;42008;52.934;5.884;2022-07-10T07:07:11;9.37;;;2.97;;
56136;SDS011;42008;52.934;5.884;2022-07-10T07:09:39;5.80;;;2.27;;
56136;SDS011;42008;52.934;5.884;2022-07-10T07:12:06;8.03;;;2.20;;
56136;SDS011;42008;52.934;5.884;2022-07-10T07:14:32;10.17;;;2.83;;
56136;SDS011;42008;52.934;5.884;2022-07-10T07:16:58;8.37;;;2.27;;
56136;SDS011;42008;52.934;5.884;2022-07-10T07:19:34;12.47;;;2.13;;
56136;SDS011;42008;52.934;5.884;2022-07-10T07:22:19;7.27;;;2.20;;
56136;SDS011;42008;52.934;5.884;2022-07-10T07:25:04;9.57;;;3.13;;
56136;SDS011;42008;52.934;5.884;2022-07-10T07:27:32;9.13;;;1.97;;
56136;SDS011;42008;52.934;5.884;2022-07-10T07:30:06;11.20;;;2.10;;
56136;SDS011;42008;52.934;5.884;2022-07-10T07:32:33;5.80;;;1.87;;
56136;SDS011;42008;52.934;5.884;2022-07-10T07:34:59;10.10;;;3.10;;
56136;SDS011;42008;52.934;5.884;2022-07-10T07:37:42;9.60;;;2.30;;
56136;SDS011;42008;52.934;5.884;2022-07-10T07:42:34;9.83;;;1.90;;
56136;SDS011;42008;52.934;5.884;2022-07-10T07:45:00;7.67;;;2.13;;
56136;SDS011;42008;52.934;5.884;2022-07-10T07:47:26;8.93;;;1.50;;
56136;SDS011;42008;52.934;5.884;2022-07-10T07:49:52;6.67;;;1.70;;
56136;SDS011;42008;52.934;5.884;2022-07-10T07:52:17;5.17;;;1.60;;
56136;SDS011;42008;52.934;5.884;2022-07-10T07:54:43;6.67;;;1.80;;
56136;SDS011;42008;52.934;5.884;2022-07-10T07:57:08;9.50;;;1.90;;
56136;SDS011;42008;52.934;5.884;2022-07-10T07:59:34;11.33;;;2.10;;
56136;SDS011;42008;52.934;5.884;2022-07-10T08:02:00;11.07;;;2.50;;
56136;SDS011;42008;52.934;5.884;2022-07-10T08:04:26;11.93;;;2.00;;
56136;SDS011;42008;52.934;5.884;2022-07-10T08:06:51;7.03;;;1.83;;
56136;SDS011;42008;52.934;5.884;2022-07-10T08:09:18;8.90;;;2.60;;
56136;SDS011;42008;52.934;5.884;2022-07-10T08:11:45;8.00;;;1.50;;
56136;SDS011;42008;52.934;5.884;2022-07-10T08:14:11;10.93;;;2.37;;
56136;SDS011;42008;52.934;5.884;2022-07-10T08:16:37;8.87;;;1.60;;
56136;SDS011;42008;52.934;5.884;2022-07-10T08:19:03;7.73;;;1.97;;
56136;SDS011;42008;52.934;5.884;2022-07-10T08:21:29;9.77;;;1.90;;
56136;SDS011;42008;52.934;5.884;2022-07-10T08:23:55;8.40;;;1.70;;
56136;SDS011;42008;52.934;5.884;2022-07-10T08:26:21;7.33;;;1.70;;
56136;SDS011;42008;52.934;5.884;2022-07-10T08:28:46;9.77;;;1.70;;
56136;SDS011;42008;52.934;5.884;2022-07-10T08:31:12;7.60;;;1.70;;
56136;SDS011;42008;52.934;5.884;2022-07-10T08:33:38;6.83;;;1.70;;
56136;SDS011;42008;52.934;5.884;2022-07-10T08:36:04;6.77;;;1.90;;
56136;SDS011;42008;52.934;5.884;2022-07-10T08:38:29;7.87;;;1.87;;
56136;SDS011;42008;52.934;5.884;2022-07-10T08:40:55;9.53;;;1.80;;
56136;SDS011;42008;52.934;5.884;2022-07-10T08:43:23;7.80;;;2.00;;
56136;SDS011;42008;52.934;5.884;2022-07-10T08:45:50;10.97;;;2.07;;
56136;SDS011;42008;52.934;5.884;2022-07-10T08:48:18;7.17;;;1.83;;
56136;SDS011;42008;52.934;5.884;2022-07-10T08:50:53;7.00;;;1.97;;
56136;SDS011;42008;52.934;5.884;2022-07-10T08:53:28;6.37;;;1.90;;
56136;SDS011;42008;52.934;5.884;2022-07-10T08:55:56;7.67;;;1.97;;
56136;SDS011;42008;52.934;5.884;2022-07-10T08:58:22;7.30;;;1.60;;
56136;SDS011;42008;52.934;5.884;2022-07-10T09:00:48;10.33;;;2.13;;
56136;SDS011;42008;52.934;5.884;2022-07-10T09:03:14;6.63;;;1.77;;
56136;SDS011;42008;52.934;5.884;2022-07-10T09:05:39;7.80;;;1.70;;
56136;SDS011;42008;52.934;5.884;2022-07-10T09:08:20;8.03;;;1.87;;
56136;SDS011;42008;52.934;5.884;2022-07-10T09:11:17;5.97;;;1.73;;
56136;SDS011;42008;52.934;5.884;2022-07-10T09:13:50;11.50;;;2.10;;
56136;SDS011;42008;52.934;5.884;2022-07-10T09:16:24;9.27;;;2.20;;
56136;SDS011;42008;52.934;5.884;2022-07-10T09:18:50;8.80;;;2.00;;
56136;SDS011;42008;52.934;5.884;2022-07-10T09:21:16;8.40;;;1.70;;
56136;SDS011;42008;52.934;5.884;2022-07-10T09:23:42;8.30;;;1.80;;
56136;SDS011;42008;52.934;5.884;2022-07-10T09:26:08;7.73;;;2.10;;
56136;SDS011;42008;52.934;5.884;2022-07-10T09:28:33;9.43;;;2.00;;
56136;SDS011;42008;52.934;5.884;2022-07-10T09:30:59;12.50;;;2.40;;
56136;SDS011;42008;52.934;5.884;2022-07-10T09:33:25;9.57;;;2.43;;
56136;SDS011;42008;52.934;5.884;2022-07-10T09:36:09;7.03;;;1.80;;
56136;SDS011;42008;52.934;5.884;2022-07-10T09:41:26;6.03;;;1.97;;
56136;SDS011;42008;52.934;5.884;2022-07-10T09:43:56;7.93;;;2.10;;
56136;SDS011;42008;52.934;5.884;2022-07-10T09:46:36;7.27;;;2.27;;
56136;SDS011;42008;52.934;5.884;2022-07-10T09:49:10;7.13;;;1.80;;
56136;SDS011;42008;52.934;5.884;2022-07-10T09:51:41;7.20;;;2.17;;
56136;SDS011;42008;52.934;5.884;2022-07-10T09:54:09;10.10;;;2.30;;
56136;SDS011;42008;52.934;5.884;2022-07-10T09:56:42;9.43;;;1.80;;
56136;SDS011;42008;52.934;5.884;2022-07-10T09:59:15;7.67;;;2.17;;
56136;SDS011;42008;52.934;5.884;2022-07-10T10:01:49;8.73;;;2.03;;
56136;SDS011;42008;52.934;5.884;2022-07-10T10:04:16;7.17;;;1.70;;
56136;SDS011;42008;52.934;5.884;2022-07-10T10:06:43;11.30;;;2.10;;
56136;SDS011;42008;52.934;5.884;2022-07-10T10:09:12;6.07;;;2.10;;
56136;SDS011;42008;52.934;5.884;2022-07-10T10:11:46;7.67;;;1.80;;
56136;SDS011;42008;52.934;5.884;2022-07-10T10:14:15;8.77;;;1.87;;
56136;SDS011;42008;52.934;5.884;2022-07-10T10:16:43;6.63;;;1.37;;
56136;SDS011;42008;52.934;5.884;2022-07-10T10:19:10;6.77;;;1.70;;
56136;SDS011;42008;52.934;5.884;2022-07-10T10:21:57;5.77;;;1.50;;
56136;SDS011;42008;52.934;5.884;2022-07-10T10:24:23;6.30;;;1.70;;
56136;SDS011;42008;52.934;5.884;2022-07-10T10:26:50;6.47;;;1.83;;
56136;SDS011;42008;52.934;5.884;2022-07-10T10:29:16;7.00;;;2.00;;
56136;SDS011;42008;52.934;5.884;2022-07-10T10:31:41;8.27;;;1.73;;
56136;SDS011;42008;52.934;5.884;2022-07-10T10:34:08;10.20;;;2.47;;
56136;SDS011;42008;52.934;5.884;2022-07-10T10:39:15;7.60;;;2.13;;
56136;SDS011;42008;52.934;5.884;2022-07-10T10:41:53;7.93;;;2.00;;
56136;SDS011;42008;52.934;5.884;2022-07-10T10:44:20;8.23;;;2.60;;
56136;SDS011;42008;52.934;5.884;2022-07-10T10:49:19;10.18;;;2.53;;
56136;SDS011;42008;52.934;5.884;2022-07-10T10:51:59;7.07;;;2.20;;
56136;SDS011;42008;52.934;5.884;2022-07-10T10:54:29;10.60;;;2.63;;
56136;SDS011;42008;52.934;5.884;2022-07-10T10:57:15;6.50;;;2.23;;
56136;SDS011;42008;52.934;5.884;2022-07-10T10:59:51;8.70;;;2.37;;
56136;SDS011;42008;52.934;5.884;2022-07-10T11:02:26;7.70;;;2.20;;
56136;SDS011;42008;52.934;5.884;2022-07-10T11:10:27;9.30;;;1.80;;
56136;SDS011;42008;52.934;5.884;2022-07-10T11:13:15;7.17;;;1.73;;
56136;SDS011;42008;52.934;5.884;2022-07-10T11:15:42;10.30;;;1.80;;
56136;SDS011;42008;52.934;5.884;2022-07-10T11:18:13;5.75;;;1.73;;
56136;SDS011;42008;52.934;5.884;2022-07-10T11:20:41;6.40;;;1.80;;
56136;SDS011;42008;52.934;5.884;2022-07-10T11:26:13;7.47;;;1.73;;
56136;SDS011;42008;52.934;5.884;2022-07-10T11:29:03;4.57;;;1.67;;
56136;SDS011;42008;52.934;5.884;2022-07-10T11:31:32;5.33;;;1.50;;
56136;SDS011;42008;52.934;5.884;2022-07-10T11:34:09;6.97;;;1.63;;
56136;SDS011;42008;52.934;5.884;2022-07-10T11:36:38;6.90;;;1.60;;
56136;SDS011;42008;52.934;5.884;2022-07-10T11:39:07;7.07;;;1.53;;
56136;SDS011;42008;52.934;5.884;2022-07-10T11:41:44;9.03;;;1.77;;
56136;SDS011;42008;52.934;5.884;2022-07-10T11:44:14;7.83;;;1.50;;
56136;SDS011;42008;52.934;5.884;2022-07-10T11:46:41;5.87;;;1.60;;
56136;SDS011;42008;52.934;5.884;2022-07-10T11:49:09;7.00;;;2.00;;
56136;SDS011;42008;52.934;5.884;2022-07-10T11:51:37;6.10;;;1.50;;
56136;SDS011;42008;52.934;5.884;2022-07-10T11:56:36;7.60;;;1.60;;
56136;SDS011;42008;52.934;5.884;2022-07-10T11:59:10;5.43;;;1.63;;
56136;SDS011;42008;52.934;5.884;2022-07-10T12:01:40;4.67;;;1.43;;
56136;SDS011;42008;52.934;5.884;2022-07-10T12:04:10;6.10;;;1.80;;
56136;SDS011;42008;52.934;5.884;2022-07-10T12:06:37;5.63;;;1.60;;
56136;SDS011;42008;52.934;5.884;2022-07-10T12:09:08;8.07;;;1.60;;
56136;SDS011;42008;52.934;5.884;2022-07-10T12:11:35;4.67;;;1.57;;
56136;SDS011;42008;52.934;5.884;2022-07-10T12:14:14;6.27;;;1.43;;
56136;SDS011;42008;52.934;5.884;2022-07-10T12:16:47;5.13;;;1.60;;
56136;SDS011;42008;52.934;5.884;2022-07-10T12:19:15;6.20;;;1.40;;
56136;SDS011;42008;52.934;5.884;2022-07-10T12:21:47;4.87;;;1.27;;
56136;SDS011;42008;52.934;5.884;2022-07-10T12:24:13;7.73;;;1.37;;
56136;SDS011;42008;52.934;5.884;2022-07-10T12:26:42;9.03;;;1.83;;
56136;SDS011;42008;52.934;5.884;2022-07-10T12:29:18;7.10;;;1.70;;
56136;SDS011;42008;52.934;5.884;2022-07-10T12:31:46;5.90;;;1.40;;
56136;SDS011;42008;52.934;5.884;2022-07-10T12:34:13;8.50;;;2.00;;
56136;SDS011;42008;52.934;5.884;2022-07-10T12:39:18;5.63;;;1.50;;
56136;SDS011;42008;52.934;5.884;2022-07-10T12:42:22;4.67;;;1.40;;
56136;SDS011;42008;52.934;5.884;2022-07-10T12:44:40;7.20;;;1.43;;
56136;SDS011;42008;52.934;5.884;2022-07-10T12:47:17;5.03;;;1.20;;
56136;SDS011;42008;52.934;5.884;2022-07-10T12:52:24;4.77;;;1.20;;
56136;SDS011;42008;52.934;5.884;2022-07-10T12:57:45;9.13;;;1.70;;
56136;SDS011;42008;52.934;5.884;2022-07-10T13:00:21;6.50;;;1.93;;
56136;SDS011;42008;52.934;5.884;2022-07-10T13:02:48;4.27;;;1.20;;
56136;SDS011;42008;52.934;5.884;2022-07-10T13:08:21;4.03;;;1.30;;
56136;SDS011;42008;52.934;5.884;2022-07-10T13:13:20;6.70;;;1.43;;
56136;SDS011;42008;52.934;5.884;2022-07-10T13:15:46;6.03;;;1.37;;
56136;SDS011;42008;52.934;5.884;2022-07-10T13:20:42;7.60;;;2.47;;
56136;SDS011;42008;52.934;5.884;2022-07-10T13:23:08;8.87;;;1.63;;
56136;SDS011;42008;52.934;5.884;2022-07-10T13:25:33;4.57;;;1.43;;
56136;SDS011;42008;52.934;5.884;2022-07-10T13:27:59;6.07;;;1.50;;
56136;SDS011;42008;52.934;5.884;2022-07-10T13:30:25;4.93;;;1.23;;
56136;SDS011;42008;52.934;5.884;2022-07-10T13:32:50;5.50;;;1.30;;
56136;SDS011;42008;52.934;5.884;2022-07-10T13:35:16;4.13;;;1.30;;
56136;SDS011;42008;52.934;5.884;2022-07-10T13:37:41;4.13;;;1.20;;
56136;SDS011;42008;52.934;5.884;2022-07-10T13:40:07;5.93;;;1.50;;
56136;SDS011;42008;52.934;5.884;2022-07-10T13:42:33;7.95;;;1.23;;
56136;SDS011;42008;52.934;5.884;2022-07-10T13:44:59;5.45;;;1.30;;
56136;SDS011;42008;52.934;5.884;2022-07-10T13:47:25;5.13;;;1.08;;
56136;SDS011;42008;52.934;5.884;2022-07-10T13:49:50;5.25;;;1.50;;
56136;SDS011;42008;52.934;5.884;2022-07-10T13:52:16;6.13;;;1.38;;
56136;SDS011;42008;52.934;5.884;2022-07-10T13:54:41;7.15;;;1.42;;
56136;SDS011;42008;52.934;5.884;2022-07-10T13:57:07;5.07;;;1.63;;
56136;SDS011;42008;52.934;5.884;2022-07-10T13:59:33;5.10;;;1.10;;
56136;SDS011;42008;52.934;5.884;2022-07-10T14:01:58;4.20;;;1.30;;
56136;SDS011;42008;52.934;5.884;2022-07-10T14:04:24;5.15;;;1.30;;
56136;SDS011;42008;52.934;5.884;2022-07-10T14:06:49;3.92;;;1.20;;
56136;SDS011;42008;52.934;5.884;2022-07-10T14:09:15;6.18;;;1.40;;
56136;SDS011;42008;52.934;5.884;2022-07-10T14:11:41;4.95;;;1.23;;
56136;SDS011;42008;52.934;5.884;2022-07-10T14:14:09;4.85;;;1.20;;
56136;SDS011;42008;52.934;5.884;2022-07-10T14:16:36;5.15;;;1.48;;
56136;SDS011;42008;52.934;5.884;2022-07-10T14:19:01;7.10;;;1.60;;
56136;SDS011;42008;52.934;5.884;2022-07-10T14:21:27;6.30;;;1.60;;
56136;SDS011;42008;52.934;5.884;2022-07-10T14:23:53;3.70;;;1.27;;
56136;SDS011;42008;52.934;5.884;2022-07-10T14:26:21;6.50;;;1.52;;
56136;SDS011;42008;52.934;5.884;2022-07-10T14:28:47;6.30;;;1.63;;
56136;SDS011;42008;52.934;5.884;2022-07-10T14:31:14;5.90;;;1.90;;
56136;SDS011;42008;52.934;5.884;2022-07-10T14:33:40;6.32;;;1.75;;
56136;SDS011;42008;52.934;5.884;2022-07-10T14:36:05;4.95;;;1.70;;
56136;SDS011;42008;52.934;5.884;2022-07-10T14:38:31;6.53;;;1.40;;
56136;SDS011;42008;52.934;5.884;2022-07-10T14:40:57;5.25;;;1.85;;
56136;SDS011;42008;52.934;5.884;2022-07-10T14:43:23;5.10;;;1.60;;
56136;SDS011;42008;52.934;5.884;2022-07-10T14:45:49;5.22;;;2.00;;
56136;SDS011;42008;52.934;5.884;2022-07-10T14:48:15;5.47;;;1.50;;
56136;SDS011;42008;52.934;5.884;2022-07-10T14:50:41;6.60;;;1.88;;
56136;SDS011;42008;52.934;5.884;2022-07-10T14:53:07;6.47;;;2.20;;
56136;SDS011;42008;52.934;5.884;2022-07-10T14:55:33;5.70;;;1.60;;
56136;SDS011;42008;52.934;5.884;2022-07-10T14:57:59;7.10;;;2.03;;
56136;SDS011;42008;52.934;5.884;2022-07-10T15:00:25;9.48;;;2.03;;
56136;SDS011;42008;52.934;5.884;2022-07-10T15:02:51;8.40;;;2.25;;
56136;SDS011;42008;52.934;5.884;2022-07-10T15:05:16;9.32;;;2.30;;
56136;SDS011;42008;52.934;5.884;2022-07-10T15:07:42;7.47;;;2.03;;
56136;SDS011;42008;52.934;5.884;2022-07-10T15:10:07;6.95;;;2.00;;
56136;SDS011;42008;52.934;5.884;2022-07-10T15:12:34;7.68;;;2.15;;
56136;SDS011;42008;52.934;5.884;2022-07-10T15:15:02;7.68;;;2.80;;
56136;SDS011;42008;52.934;5.884;2022-07-10T15:17:28;8.20;;;2.50;;
56136;SDS011;42008;52.934;5.884;2022-07-10T15:19:54;9.30;;;2.47;;